AEE545 LCLK-LGTS
Flight info
| Callsign | AEE545 |
|---|---|
| Flight time | 1h 53m |
| Altitude | 36000 |
| Route | PHA M31 GENOS M42 ALKIS UL609 MES UL618 LMO UN128 PEREN M603 ARNAS |
| Aircraft | A320/M-SDE3FGHIRWY/LB1 |
Departure
| Time | 2026-05-01 08:38 |
|---|---|
| Airport | Larnaca International Airport (LCLK) |
Arrival
| Time | 2026-05-01 10:32 |
|---|---|
| Airport | Thessaloniki Macedonia International Airport (LGTS) |
| Time | Latitude | Longitude | Altitude | Speed | Heading |
|---|---|---|---|---|---|
| 2026-05-01 08:12 | 34.86908 | 33.60897 | 20 ft | 0 kts | 46° |
| 2026-05-01 08:30 | 34.86902 | 33.60889 | 23 ft | 4 kts | 48° |
| 2026-05-01 08:30 | 34.86886 | 33.60864 | 24 ft | 4 kts | 59° |
| 2026-05-01 08:31 | 34.86874 | 33.60834 | 24 ft | 4 kts | 75° |
| 2026-05-01 08:31 | 34.86872 | 33.60803 | 23 ft | 4 kts | 109° |
| 2026-05-01 08:31 | 34.86877 | 33.60790 | 24 ft | 0 kts | 136° |
| 2026-05-01 08:34 | 34.86876 | 33.60792 | 24 ft | 1 kts | 136° |
| 2026-05-01 08:34 | 34.86865 | 33.60803 | 21 ft | 3 kts | 138° |
| 2026-05-01 08:34 | 34.86842 | 33.60828 | 20 ft | 5 kts | 137° |
| 2026-05-01 08:34 | 34.86809 | 33.60867 | 22 ft | 8 kts | 140° |
| 2026-05-01 08:35 | 34.86769 | 33.60918 | 20 ft | 10 kts | 135° |
| 2026-05-01 08:35 | 34.86715 | 33.60982 | 20 ft | 12 kts | 135° |
| 2026-05-01 08:35 | 34.86652 | 33.61058 | 20 ft | 13 kts | 135° |
| 2026-05-01 08:35 | 34.86573 | 33.61058 | 21 ft | 13 kts | 229° |
| 2026-05-01 08:36 | 34.86490 | 33.61050 | 21 ft | 14 kts | 135° |
| 2026-05-01 08:36 | 34.86481 | 33.61129 | 21 ft | 0 kts | 76° |
| 2026-05-01 08:36 | 34.86483 | 33.61138 | 21 ft | 2 kts | 76° |
| 2026-05-01 08:36 | 34.86488 | 33.61181 | 22 ft | 7 kts | 96° |
| 2026-05-01 08:37 | 34.86459 | 33.61234 | 22 ft | 9 kts | 117° |
| 2026-05-01 08:37 | 34.86487 | 33.61307 | 23 ft | 16 kts | 47° |
| 2026-05-01 08:37 | 34.86733 | 33.61609 | 20 ft | 84 kts | 45° |
| 2026-05-01 08:37 | 34.87283 | 33.62283 | 22 ft | 138 kts | 45° |
| 2026-05-01 08:38 | 34.88062 | 33.63239 | 97 ft | 172 kts | 47° |
| 2026-05-01 08:38 | 34.88895 | 33.64259 | 666 ft | 172 kts | 48° |
| 2026-05-01 08:38 | 34.89737 | 33.65330 | 1164 ft | 177 kts | 51° |
| 2026-05-01 08:38 | 34.90572 | 33.66429 | 1739 ft | 177 kts | 50° |
| 2026-05-01 08:39 | 34.91311 | 33.67735 | 1931 ft | 198 kts | 80° |
| 2026-05-01 08:39 | 34.91204 | 33.69462 | 2128 ft | 221 kts | 119° |
| 2026-05-01 08:39 | 34.90079 | 33.70771 | 2579 ft | 232 kts | 160° |
| 2026-05-01 08:39 | 34.88506 | 33.70869 | 3374 ft | 231 kts | 199° |
| 2026-05-01 08:40 | 34.86795 | 33.67807 | 4867 ft | 238 kts | 265° |
| 2026-05-01 08:40 | 34.86816 | 33.65761 | 5488 ft | 250 kts | 275° |
| 2026-05-01 08:40 | 34.86983 | 33.63693 | 6304 ft | 243 kts | 275° |
| 2026-05-01 08:41 | 34.87008 | 33.61629 | 7004 ft | 250 kts | 266° |
| 2026-05-01 08:41 | 34.86833 | 33.59425 | 7428 ft | 269 kts | 262° |
| 2026-05-01 08:41 | 34.86563 | 33.57166 | 8121 ft | 275 kts | 261° |
| 2026-05-01 08:41 | 34.86248 | 33.54856 | 8928 ft | 278 kts | 260° |
| 2026-05-01 08:42 | 34.85917 | 33.52533 | 9725 ft | 281 kts | 259° |
| 2026-05-01 08:42 | 34.85573 | 33.50166 | 10348 ft | 289 kts | 260° |
| 2026-05-01 08:42 | 34.85209 | 33.47660 | 10536 ft | 312 kts | 260° |
| 2026-05-01 08:42 | 34.84821 | 33.44959 | 10681 ft | 335 kts | 260° |
| 2026-05-01 08:43 | 34.84419 | 33.42122 | 11164 ft | 344 kts | 260° |
| 2026-05-01 08:43 | 34.84011 | 33.39235 | 11808 ft | 347 kts | 260° |
| 2026-05-01 08:43 | 34.83601 | 33.36330 | 12476 ft | 351 kts | 260° |
| 2026-05-01 08:43 | 34.83186 | 33.33393 | 13155 ft | 353 kts | 260° |
| 2026-05-01 08:44 | 34.82769 | 33.30435 | 13816 ft | 356 kts | 260° |
| 2026-05-01 08:44 | 34.82345 | 33.27454 | 14395 ft | 359 kts | 260° |
| 2026-05-01 08:44 | 34.81915 | 33.24452 | 14984 ft | 361 kts | 260° |
| 2026-05-01 08:44 | 34.81481 | 33.21431 | 15554 ft | 364 kts | 260° |
| 2026-05-01 08:45 | 34.81045 | 33.18388 | 16114 ft | 366 kts | 260° |
| 2026-05-01 08:45 | 34.80603 | 33.15323 | 16692 ft | 369 kts | 260° |
| 2026-05-01 08:45 | 34.80156 | 33.12235 | 17282 ft | 372 kts | 260° |
| 2026-05-01 08:45 | 34.79708 | 33.09121 | 17899 ft | 375 kts | 260° |
| 2026-05-01 08:46 | 34.79258 | 33.05981 | 18461 ft | 378 kts | 261° |
| 2026-05-01 08:46 | 34.78809 | 33.02815 | 19005 ft | 381 kts | 260° |
| 2026-05-01 08:46 | 34.78360 | 32.99624 | 19569 ft | 384 kts | 261° |
| 2026-05-01 08:46 | 34.77906 | 32.96412 | 20124 ft | 387 kts | 261° |
| 2026-05-01 08:47 | 34.77455 | 32.93220 | 20644 ft | 389 kts | 261° |
| 2026-05-01 08:47 | 34.76996 | 32.89962 | 21158 ft | 392 kts | 261° |
| 2026-05-01 08:47 | 34.76530 | 32.86683 | 21643 ft | 395 kts | 261° |
| 2026-05-01 08:47 | 34.76057 | 32.83386 | 22118 ft | 397 kts | 261° |
| 2026-05-01 08:48 | 34.75579 | 32.80068 | 22589 ft | 399 kts | 261° |
| 2026-05-01 08:48 | 34.75097 | 32.76730 | 23040 ft | 402 kts | 261° |
| 2026-05-01 08:48 | 34.74611 | 32.73380 | 23493 ft | 404 kts | 261° |
| 2026-05-01 08:48 | 34.74119 | 32.69996 | 23877 ft | 407 kts | 261° |
| 2026-05-01 08:49 | 34.73622 | 32.66612 | 24257 ft | 408 kts | 261° |
| 2026-05-01 08:49 | 34.73112 | 32.63209 | 24653 ft | 410 kts | 261° |
| 2026-05-01 08:49 | 34.72592 | 32.59797 | 25039 ft | 411 kts | 261° |
| 2026-05-01 08:49 | 34.72066 | 32.56370 | 25414 ft | 412 kts | 261° |
| 2026-05-01 08:50 | 34.71538 | 32.52940 | 25783 ft | 414 kts | 261° |
| 2026-05-01 08:50 | 34.71115 | 32.49483 | 26134 ft | 414 kts | 267° |
| 2026-05-01 08:50 | 34.70929 | 32.45988 | 26491 ft | 415 kts | 268° |
| 2026-05-01 08:50 | 34.70750 | 32.42482 | 26849 ft | 416 kts | 268° |
| 2026-05-01 08:51 | 34.70567 | 32.38964 | 27202 ft | 418 kts | 268° |
| 2026-05-01 08:51 | 34.70382 | 32.35435 | 27544 ft | 419 kts | 268° |
| 2026-05-01 08:51 | 34.70197 | 32.31949 | 27922 ft | 419 kts | 268° |
| 2026-05-01 08:51 | 34.70008 | 32.28421 | 28379 ft | 417 kts | 268° |
| 2026-05-01 08:52 | 34.69815 | 32.24873 | 28918 ft | 414 kts | 269° |
| 2026-05-01 08:52 | 34.69624 | 32.21397 | 29435 ft | 412 kts | 269° |
| 2026-05-01 08:52 | 34.69436 | 32.17929 | 29966 ft | 409 kts | 269° |
| 2026-05-01 08:52 | 34.69251 | 32.14496 | 30416 ft | 407 kts | 269° |
| 2026-05-01 08:53 | 34.69067 | 32.11118 | 30843 ft | 405 kts | 269° |
| 2026-05-01 08:53 | 34.68878 | 32.07706 | 31269 ft | 403 kts | 269° |
| 2026-05-01 08:53 | 34.68688 | 32.04319 | 31733 ft | 400 kts | 269° |
| 2026-05-01 08:53 | 34.68500 | 32.00965 | 32203 ft | 397 kts | 269° |
| 2026-05-01 08:54 | 34.68310 | 31.97618 | 32659 ft | 395 kts | 269° |
| 2026-05-01 08:54 | 34.68122 | 31.94304 | 33110 ft | 393 kts | 270° |
| 2026-05-01 08:54 | 34.68112 | 31.91010 | 33551 ft | 387 kts | 278° |
| 2026-05-01 08:54 | 34.68581 | 31.87814 | 33985 ft | 382 kts | 287° |
| 2026-05-01 08:55 | 34.69417 | 31.84759 | 34346 ft | 380 kts | 290° |
| 2026-05-01 08:55 | 34.70283 | 31.81722 | 34636 ft | 380 kts | 290° |
| 2026-05-01 08:55 | 34.71142 | 31.78684 | 34930 ft | 380 kts | 289° |
| 2026-05-01 08:55 | 34.71996 | 31.75650 | 35235 ft | 379 kts | 289° |
| 2026-05-01 08:56 | 34.72847 | 31.72618 | 35509 ft | 379 kts | 289° |
| 2026-05-01 08:56 | 34.73698 | 31.69586 | 35764 ft | 379 kts | 289° |
| 2026-05-01 08:56 | 34.74549 | 31.66555 | 35950 ft | 380 kts | 289° |
| 2026-05-01 08:56 | 34.75408 | 31.63497 | 36001 ft | 385 kts | 289° |
| 2026-05-01 08:57 | 34.77159 | 31.57263 | 36003 ft | 391 kts | 289° |
| 2026-05-01 08:57 | 34.78918 | 31.50985 | 36004 ft | 392 kts | 289° |
| 2026-05-01 08:58 | 34.80665 | 31.44737 | 35999 ft | 390 kts | 289° |
| 2026-05-01 08:58 | 34.82406 | 31.38496 | 36000 ft | 389 kts | 289° |
| 2026-05-01 08:59 | 34.84145 | 31.32251 | 36005 ft | 390 kts | 289° |
| 2026-05-01 08:59 | 34.85879 | 31.25997 | 36009 ft | 390 kts | 289° |
| 2026-05-01 09:00 | 34.87609 | 31.19748 | 36022 ft | 389 kts | 289° |
| 2026-05-01 09:00 | 34.89327 | 31.13515 | 36025 ft | 388 kts | 289° |
| 2026-05-01 09:01 | 34.91044 | 31.07290 | 36022 ft | 387 kts | 289° |
| 2026-05-01 09:01 | 34.92757 | 31.01068 | 36021 ft | 387 kts | 289° |
| 2026-05-01 09:02 | 34.94462 | 30.94848 | 36027 ft | 387 kts | 289° |
| 2026-05-01 09:02 | 34.96162 | 30.88637 | 36025 ft | 386 kts | 289° |
| 2026-05-01 09:03 | 34.97566 | 30.83484 | 36023 ft | 385 kts | 288° |
| 2026-05-01 09:03 | 34.99529 | 30.76280 | 36020 ft | 385 kts | 289° |
| 2026-05-01 09:04 | 35.01221 | 30.70088 | 36021 ft | 385 kts | 288° |
| 2026-05-01 09:04 | 35.02627 | 30.64903 | 36019 ft | 384 kts | 288° |
| 2026-05-01 09:05 | 35.04288 | 30.58747 | 36015 ft | 384 kts | 288° |
| 2026-05-01 09:05 | 35.05972 | 30.52510 | 36014 ft | 384 kts | 288° |
| 2026-05-01 09:06 | 35.07642 | 30.46312 | 36013 ft | 384 kts | 288° |
| 2026-05-01 09:06 | 35.09298 | 30.40153 | 36013 ft | 384 kts | 288° |
| 2026-05-01 09:07 | 35.10967 | 30.33953 | 36019 ft | 384 kts | 288° |
| 2026-05-01 09:07 | 35.12629 | 30.27750 | 36020 ft | 384 kts | 288° |
| 2026-05-01 09:08 | 35.14281 | 30.21549 | 36020 ft | 384 kts | 288° |
| 2026-05-01 09:08 | 35.15927 | 30.15341 | 36020 ft | 384 kts | 288° |
| 2026-05-01 09:09 | 35.17576 | 30.09138 | 36020 ft | 384 kts | 288° |
| 2026-05-01 09:09 | 35.19227 | 30.02941 | 36022 ft | 383 kts | 288° |
| 2026-05-01 09:10 | 35.21708 | 29.97203 | 36017 ft | 385 kts | 304° |
| 2026-05-01 09:10 | 35.24919 | 29.91962 | 36017 ft | 385 kts | 304° |
| 2026-05-01 09:11 | 35.28117 | 29.86703 | 36016 ft | 385 kts | 304° |
| 2026-05-01 09:11 | 35.31308 | 29.81445 | 36019 ft | 385 kts | 303° |
| 2026-05-01 09:12 | 35.34503 | 29.76193 | 36017 ft | 384 kts | 303° |
| 2026-05-01 09:12 | 35.37689 | 29.70935 | 36016 ft | 384 kts | 303° |
| 2026-05-01 09:13 | 35.40872 | 29.65675 | 36013 ft | 384 kts | 303° |
| 2026-05-01 09:13 | 35.44029 | 29.60454 | 36012 ft | 384 kts | 303° |
| 2026-05-01 09:14 | 35.47205 | 29.55179 | 36011 ft | 384 kts | 303° |
| 2026-05-01 09:14 | 35.50380 | 29.49914 | 36019 ft | 384 kts | 303° |
| 2026-05-01 09:15 | 35.53551 | 29.44649 | 36033 ft | 383 kts | 303° |
| 2026-05-01 09:15 | 35.56713 | 29.39384 | 36023 ft | 383 kts | 303° |
| 2026-05-01 09:16 | 35.59872 | 29.34120 | 36017 ft | 383 kts | 303° |
| 2026-05-01 09:17 | 35.64604 | 29.26216 | 36011 ft | 383 kts | 303° |
| 2026-05-01 09:17 | 35.69335 | 29.18288 | 36021 ft | 383 kts | 303° |
| 2026-05-01 09:18 | 35.74042 | 29.10396 | 36017 ft | 383 kts | 303° |
| 2026-05-01 09:19 | 35.78759 | 29.02466 | 36012 ft | 383 kts | 303° |
| 2026-05-01 09:20 | 35.83473 | 28.94533 | 36013 ft | 382 kts | 303° |
| 2026-05-01 09:21 | 35.89732 | 28.83963 | 36010 ft | 381 kts | 303° |
| 2026-05-01 09:21 | 35.94410 | 28.76016 | 36018 ft | 381 kts | 302° |
| 2026-05-01 09:22 | 36.00635 | 28.65418 | 36030 ft | 381 kts | 302° |
| 2026-05-01 09:23 | 36.05300 | 28.57478 | 36022 ft | 380 kts | 302° |
| 2026-05-01 09:24 | 36.09953 | 28.49534 | 36006 ft | 380 kts | 302° |
| 2026-05-01 09:25 | 36.16152 | 28.38921 | 36001 ft | 380 kts | 302° |
| 2026-05-01 09:26 | 36.20791 | 28.30966 | 36000 ft | 380 kts | 302° |
| 2026-05-01 09:26 | 36.25398 | 28.23047 | 36001 ft | 379 kts | 302° |
| 2026-05-01 09:27 | 36.30007 | 28.15095 | 35989 ft | 378 kts | 302° |
| 2026-05-01 09:28 | 36.33076 | 28.09793 | 35992 ft | 377 kts | 302° |
| 2026-05-01 09:28 | 36.36724 | 28.05054 | 35986 ft | 382 kts | 311° |
| 2026-05-01 09:29 | 36.42576 | 27.98316 | 35983 ft | 382 kts | 311° |
| 2026-05-01 09:30 | 36.48414 | 27.91556 | 35984 ft | 382 kts | 311° |
| 2026-05-01 09:30 | 36.54252 | 27.84794 | 35984 ft | 382 kts | 311° |
| 2026-05-01 09:31 | 36.58112 | 27.80317 | 35991 ft | 382 kts | 311° |
| 2026-05-01 09:32 | 36.63944 | 27.73540 | 36014 ft | 383 kts | 311° |
| 2026-05-01 09:32 | 36.69789 | 27.66731 | 35996 ft | 384 kts | 311° |
| 2026-05-01 09:33 | 36.73687 | 27.62170 | 35993 ft | 385 kts | 311° |
| 2026-05-01 09:34 | 36.79548 | 27.55315 | 36001 ft | 385 kts | 311° |
| 2026-05-01 09:34 | 36.85409 | 27.48451 | 36004 ft | 385 kts | 311° |
| 2026-05-01 09:35 | 36.91264 | 27.41570 | 36023 ft | 385 kts | 310° |
| 2026-05-01 09:36 | 36.95135 | 27.37013 | 36049 ft | 385 kts | 310° |
| 2026-05-01 09:36 | 36.99040 | 27.32414 | 36040 ft | 386 kts | 310° |
| 2026-05-01 09:37 | 37.02946 | 27.27799 | 36028 ft | 387 kts | 310° |
| 2026-05-01 09:37 | 37.08806 | 27.20866 | 36025 ft | 386 kts | 310° |
| 2026-05-01 09:38 | 37.14669 | 27.13909 | 36038 ft | 387 kts | 310° |
| 2026-05-01 09:39 | 37.20537 | 27.06946 | 36040 ft | 387 kts | 310° |
| 2026-05-01 09:39 | 37.24451 | 27.02294 | 36069 ft | 388 kts | 310° |
| 2026-05-01 09:40 | 37.30326 | 26.95277 | 36050 ft | 389 kts | 310° |
| 2026-05-01 09:41 | 37.34257 | 26.90589 | 36049 ft | 390 kts | 310° |
| 2026-05-01 09:41 | 37.40148 | 26.83540 | 36069 ft | 390 kts | 311° |
| 2026-05-01 09:42 | 37.44234 | 26.78991 | 36060 ft | 393 kts | 313° |
| 2026-05-01 09:43 | 37.52574 | 26.70171 | 36057 ft | 393 kts | 313° |
| 2026-05-01 09:43 | 37.56716 | 26.65693 | 36055 ft | 392 kts | 313° |
| 2026-05-01 09:44 | 37.62918 | 26.58952 | 36062 ft | 392 kts | 313° |
| 2026-05-01 09:45 | 37.67048 | 26.54451 | 36072 ft | 392 kts | 313° |
| 2026-05-01 09:45 | 37.73235 | 26.47713 | 36080 ft | 391 kts | 313° |
| 2026-05-01 09:46 | 37.77368 | 26.43235 | 36079 ft | 391 kts | 313° |
| 2026-05-01 09:46 | 37.81488 | 26.38754 | 36078 ft | 390 kts | 313° |
| 2026-05-01 09:47 | 37.85580 | 26.34277 | 36095 ft | 392 kts | 313° |
| 2026-05-01 09:47 | 37.89713 | 26.29751 | 36088 ft | 393 kts | 313° |
| 2026-05-01 09:48 | 37.93850 | 26.25212 | 36094 ft | 394 kts | 312° |
| 2026-05-01 09:48 | 37.98002 | 26.20658 | 36093 ft | 394 kts | 312° |
| 2026-05-01 09:49 | 38.02140 | 26.16101 | 36098 ft | 394 kts | 312° |
| 2026-05-01 09:49 | 38.06268 | 26.11535 | 36105 ft | 394 kts | 312° |
| 2026-05-01 09:50 | 38.10392 | 26.06970 | 36111 ft | 394 kts | 312° |
| 2026-05-01 09:50 | 38.14532 | 26.02386 | 36123 ft | 396 kts | 313° |
| 2026-05-01 09:51 | 38.18687 | 25.97788 | 36116 ft | 396 kts | 312° |
| 2026-05-01 09:51 | 38.22849 | 25.93174 | 36127 ft | 397 kts | 314° |
| 2026-05-01 09:52 | 38.27667 | 25.89604 | 36114 ft | 415 kts | 332° |
| 2026-05-01 09:52 | 38.33223 | 25.87415 | 36113 ft | 419 kts | 334° |
| 2026-05-01 09:53 | 38.38802 | 25.85243 | 36140 ft | 419 kts | 334° |
| 2026-05-01 09:53 | 38.44379 | 25.83059 | 36102 ft | 420 kts | 334° |
| 2026-05-01 09:54 | 38.49972 | 25.80856 | 36098 ft | 421 kts | 334° |
| 2026-05-01 09:54 | 38.54630 | 25.79013 | 36102 ft | 422 kts | 334° |
| 2026-05-01 09:55 | 38.60239 | 25.76794 | 36114 ft | 422 kts | 334° |
| 2026-05-01 09:55 | 38.65860 | 25.74569 | 36139 ft | 423 kts | 334° |
| 2026-05-01 09:56 | 38.71495 | 25.72343 | 36130 ft | 424 kts | 334° |
| 2026-05-01 09:56 | 38.77139 | 25.70111 | 36134 ft | 425 kts | 334° |
| 2026-05-01 09:57 | 38.82785 | 25.67860 | 36137 ft | 425 kts | 334° |
| 2026-05-01 09:57 | 38.88403 | 25.65622 | 36164 ft | 426 kts | 334° |
| 2026-05-01 09:58 | 38.94068 | 25.63361 | 36179 ft | 426 kts | 334° |
| 2026-05-01 09:58 | 38.99731 | 25.61101 | 36173 ft | 427 kts | 334° |
| 2026-05-01 09:59 | 39.05401 | 25.58835 | 36178 ft | 427 kts | 334° |
| 2026-05-01 09:59 | 39.11078 | 25.56561 | 36176 ft | 427 kts | 335° |
| 2026-05-01 10:00 | 39.16760 | 25.54280 | 36175 ft | 428 kts | 335° |
| 2026-05-01 10:00 | 39.22447 | 25.51991 | 36183 ft | 428 kts | 335° |
| 2026-05-01 10:01 | 39.28139 | 25.49700 | 36189 ft | 429 kts | 335° |
| 2026-05-01 10:01 | 39.33836 | 25.47401 | 36213 ft | 429 kts | 335° |
| 2026-05-01 10:02 | 39.39537 | 25.45098 | 36207 ft | 430 kts | 335° |
| 2026-05-01 10:02 | 39.45256 | 25.42786 | 36202 ft | 430 kts | 335° |
| 2026-05-01 10:03 | 39.50937 | 25.40480 | 36208 ft | 431 kts | 335° |
| 2026-05-01 10:03 | 39.56664 | 25.38154 | 36213 ft | 431 kts | 335° |
| 2026-05-01 10:04 | 39.62389 | 25.35825 | 36209 ft | 432 kts | 335° |
| 2026-05-01 10:04 | 39.68128 | 25.33482 | 36217 ft | 432 kts | 335° |
| 2026-05-01 10:05 | 39.73861 | 25.31137 | 36228 ft | 432 kts | 335° |
| 2026-05-01 10:05 | 39.79604 | 25.28792 | 36260 ft | 433 kts | 336° |
| 2026-05-01 10:06 | 39.85352 | 25.26438 | 35988 ft | 433 kts | 336° |
| 2026-05-01 10:06 | 39.88154 | 25.25089 | 35740 ft | 425 kts | 328° |
| 2026-05-01 10:06 | 39.90712 | 25.23228 | 35509 ft | 418 kts | 320° |
| 2026-05-01 10:07 | 39.92976 | 25.20909 | 35271 ft | 411 kts | 311° |
| 2026-05-01 10:07 | 39.94912 | 25.18205 | 35040 ft | 406 kts | 303° |
| 2026-05-01 10:07 | 39.96560 | 25.15238 | 34807 ft | 404 kts | 301° |
| 2026-05-01 10:07 | 39.98179 | 25.12247 | 34577 ft | 404 kts | 301° |
| 2026-05-01 10:08 | 40.01422 | 25.06278 | 34105 ft | 403 kts | 301° |
| 2026-05-01 10:08 | 40.03044 | 25.03284 | 33832 ft | 403 kts | 301° |
| 2026-05-01 10:08 | 40.04657 | 25.00300 | 33565 ft | 403 kts | 301° |
| 2026-05-01 10:09 | 40.06274 | 24.97306 | 33298 ft | 404 kts | 301° |
| 2026-05-01 10:09 | 40.07891 | 24.94309 | 33041 ft | 404 kts | 301° |
| 2026-05-01 10:09 | 40.09510 | 24.91308 | 32781 ft | 404 kts | 301° |
| 2026-05-01 10:09 | 40.11129 | 24.88302 | 32518 ft | 405 kts | 301° |
| 2026-05-01 10:10 | 40.12750 | 24.85292 | 32252 ft | 405 kts | 301° |
| 2026-05-01 10:10 | 40.14372 | 24.82278 | 32005 ft | 406 kts | 301° |
| 2026-05-01 10:10 | 40.17614 | 24.76234 | 31506 ft | 406 kts | 301° |
| 2026-05-01 10:11 | 40.19213 | 24.73243 | 31264 ft | 407 kts | 301° |
| 2026-05-01 10:11 | 40.20839 | 24.70211 | 31013 ft | 407 kts | 301° |
| 2026-05-01 10:11 | 40.22488 | 24.67133 | 30764 ft | 408 kts | 301° |
| 2026-05-01 10:11 | 40.24092 | 24.64127 | 30520 ft | 408 kts | 301° |
| 2026-05-01 10:12 | 40.25713 | 24.61081 | 30288 ft | 409 kts | 301° |
| 2026-05-01 10:12 | 40.27340 | 24.58025 | 30000 ft | 410 kts | 301° |
| 2026-05-01 10:12 | 40.30604 | 24.51899 | 29425 ft | 410 kts | 301° |
| 2026-05-01 10:13 | 40.32234 | 24.48842 | 29145 ft | 409 kts | 301° |
| 2026-05-01 10:13 | 40.33858 | 24.45790 | 28862 ft | 408 kts | 301° |
| 2026-05-01 10:13 | 40.35478 | 24.42743 | 28607 ft | 407 kts | 301° |
| 2026-05-01 10:14 | 40.38723 | 24.36626 | 28072 ft | 408 kts | 302° |
| 2026-05-01 10:14 | 40.40337 | 24.33575 | 27802 ft | 407 kts | 302° |
| 2026-05-01 10:14 | 40.41952 | 24.30515 | 27537 ft | 406 kts | 302° |
| 2026-05-01 10:14 | 40.43553 | 24.27479 | 27164 ft | 403 kts | 302° |
| 2026-05-01 10:15 | 40.45143 | 24.24466 | 26559 ft | 398 kts | 302° |
| 2026-05-01 10:15 | 40.46709 | 24.21499 | 25970 ft | 394 kts | 302° |
| 2026-05-01 10:15 | 40.48263 | 24.18547 | 25384 ft | 391 kts | 302° |
| 2026-05-01 10:15 | 40.49802 | 24.15616 | 24808 ft | 388 kts | 302° |
| 2026-05-01 10:16 | 40.51334 | 24.12703 | 24234 ft | 387 kts | 302° |
| 2026-05-01 10:16 | 40.52859 | 24.09800 | 23629 ft | 385 kts | 302° |
| 2026-05-01 10:16 | 40.55880 | 24.04030 | 22483 ft | 380 kts | 302° |
| 2026-05-01 10:17 | 40.57299 | 24.01169 | 21960 ft | 377 kts | 297° |
| 2026-05-01 10:17 | 40.58844 | 23.94703 | 20915 ft | 370 kts | 275° |
| 2026-05-01 10:17 | 40.58860 | 23.91332 | 20425 ft | 368 kts | 265° |
| 2026-05-01 10:18 | 40.57987 | 23.84742 | 19443 ft | 363 kts | 260° |
| 2026-05-01 10:18 | 40.57529 | 23.81485 | 18957 ft | 361 kts | 260° |
| 2026-05-01 10:18 | 40.57075 | 23.78249 | 18445 ft | 359 kts | 261° |
| 2026-05-01 10:19 | 40.56628 | 23.75039 | 17904 ft | 356 kts | 261° |
| 2026-05-01 10:19 | 40.56185 | 23.71855 | 17382 ft | 352 kts | 261° |
| 2026-05-01 10:19 | 40.55742 | 23.68699 | 16875 ft | 349 kts | 261° |
| 2026-05-01 10:20 | 40.54861 | 23.62470 | 15823 ft | 344 kts | 261° |
| 2026-05-01 10:20 | 40.54422 | 23.59384 | 15286 ft | 343 kts | 261° |
| 2026-05-01 10:20 | 40.53983 | 23.56312 | 14754 ft | 341 kts | 261° |
| 2026-05-01 10:20 | 40.53545 | 23.53253 | 14227 ft | 340 kts | 261° |
| 2026-05-01 10:21 | 40.53115 | 23.50245 | 13671 ft | 339 kts | 261° |
| 2026-05-01 10:21 | 40.52746 | 23.44155 | 12598 ft | 331 kts | 270° |
| 2026-05-01 10:21 | 40.52699 | 23.41145 | 12073 ft | 329 kts | 269° |
| 2026-05-01 10:22 | 40.52596 | 23.35177 | 11029 ft | 324 kts | 269° |
| 2026-05-01 10:22 | 40.51215 | 23.29810 | 10599 ft | 307 kts | 231° |
| 2026-05-01 10:23 | 40.49617 | 23.28032 | 10479 ft | 299 kts | 211° |
| 2026-05-01 10:23 | 40.45730 | 23.26511 | 10200 ft | 285 kts | 198° |
| 2026-05-01 10:23 | 40.43863 | 23.25734 | 9900 ft | 280 kts | 202° |
| 2026-05-01 10:24 | 40.40355 | 23.23589 | 9189 ft | 277 kts | 212° |
| 2026-05-01 10:24 | 40.37195 | 23.20760 | 8420 ft | 274 kts | 221° |
| 2026-05-01 10:25 | 40.34432 | 23.17343 | 7628 ft | 273 kts | 231° |
| 2026-05-01 10:25 | 40.32159 | 23.13385 | 6863 ft | 272 kts | 239° |
| 2026-05-01 10:26 | 40.31226 | 23.11262 | 6658 ft | 264 kts | 244° |
| 2026-05-01 10:26 | 40.30455 | 23.09142 | 6524 ft | 252 kts | 248° |
| 2026-05-01 10:26 | 40.29928 | 23.04991 | 6182 ft | 223 kts | 297° |
| 2026-05-01 10:27 | 40.32356 | 23.03030 | 5228 ft | 215 kts | 350° |
| 2026-05-01 10:27 | 40.35242 | 23.02282 | 4594 ft | 199 kts | 349° |
| 2026-05-01 10:28 | 40.36570 | 23.01933 | 4232 ft | 193 kts | 349° |
| 2026-05-01 10:28 | 40.39118 | 23.01201 | 3515 ft | 179 kts | 348° |
| 2026-05-01 10:28 | 40.40302 | 23.00823 | 3420 ft | 172 kts | 347° |
| 2026-05-01 10:29 | 40.42560 | 23.00100 | 2407 ft | 166 kts | 347° |
| 2026-05-01 10:29 | 40.43682 | 22.99739 | 1883 ft | 163 kts | 347° |
| 2026-05-01 10:30 | 40.45746 | 22.99071 | 1339 ft | 149 kts | 348° |
| 2026-05-01 10:30 | 40.47766 | 22.98458 | 868 ft | 148 kts | 347° |
| 2026-05-01 10:31 | 40.49715 | 22.97804 | 396 ft | 142 kts | 342° |
| 2026-05-01 10:31 | 40.51601 | 22.97217 | 40 ft | 129 kts | 343° |
| 2026-05-01 10:32 | 40.52753 | 22.96850 | 30 ft | 36 kts | 347° |
| 2026-05-01 10:32 | 40.52944 | 22.96790 | 29 ft | 28 kts | 349° |
| 2026-05-01 10:32 | 40.53026 | 22.96947 | 29 ft | 7 kts | 172° |
| 2026-05-01 10:33 | 40.52903 | 22.96983 | 29 ft | 12 kts | 165° |
| 2026-05-01 10:33 | 40.52710 | 22.97044 | 29 ft | 17 kts | 167° |
| 2026-05-01 10:34 | 40.52585 | 22.97084 | 29 ft | 20 kts | 166° |
| 2026-05-01 10:34 | 40.52441 | 22.97130 | 28 ft | 19 kts | 166° |
| 2026-05-01 10:34 | 40.52385 | 22.97235 | 28 ft | 17 kts | 78° |
| 2026-05-01 10:35 | 40.52343 | 22.97461 | 28 ft | 5 kts | 43° |
| 2026-05-01 10:35 | 40.52375 | 22.97499 | 29 ft | 2 kts | 45° |
| 2026-05-01 10:35 | 40.52376 | 22.97500 | 28 ft | 0 kts | 45° |